11. August 2022

Uhrzeit Code Wetter Temp. Sichtweite Wolkendecke Wind METAR/SPECI
17:00
V
26 °C 10 km+ - 220° 220° 16 kt METAR DGAA 111700Z 22016KT 9999 CAVOK 26/21 Q1010 NOSIG

10. August 2022

Uhrzeit Code Wetter Temp. Sichtweite Wolkendecke Wind METAR/SPECI
20:00
V
24 °C 10 km+ - 220° 220° 14 kt METAR DGAA 102000Z 22014KT 9999 FEW010 24/22 Q1012 NOSIG
19:00
V
24 °C 10 km+ - 220° 220° 15 kt METAR DGAA 101900Z 22015KT 9999 FEW010 24/22 Q1012 NOSIG
18:00
V
25 °C 10 km+ - 210° 210° 16 kt METAR DGAA 101800Z 21016KT 9999 FEW010 25/22 Q1012 NOSIQ
17:00
V
26 °C 10 km+ - 210° 210° 18 kt METAR DGAA 101700Z 21018KT 9999 FEW016 26/22 Q1012 NOSIQ
16:00
V
26 °C 10 km+ - 210° 210° 20 kt METAR DGAA 101600Z 21020KT 9999 FEW020 26/22 Q1012 NOSIQ
15:00
V
27 °C 10 km+ - 200° 200° 21 kt METAR DGAA 101500Z 20021KT 9999 FEW020 27/21 Q1012 NOSIQ
14:00
V
27 °C 10 km+ - 200° 200° 19 kt METAR DGAA 101400Z 20019KT 9999 FEW024 27/22 Q1013 NOSIQ
12:00
V
28 °C 10 km+ - 220° 220° 14 kt METAR DGAA 101200Z 22014KT 9999 FEW022 28/22 Q1013 NOSIG
10:00
M
27 °C 10 km+ 1.500 ft 250° 250° 14 kt METAR DGAA 101000Z 25014KT 9999 BKN015 27/21 Q1014 NOSIG
09:00
V
26 °C 10 km+ - 240° 240° 11 kt METAR DGAA 100900Z 24011KT 9999 SCT010 26/22 Q1016 NOSIG
08:00
M
24 °C 5 km - 250° 250° 10 kt METAR DGAA 100800Z 25010KT 5000 BR NSC 24/22 Q1015 NOSIG
07:00
I
24 °C 3 km - 260° 260° 10 kt METAR DGAA 100700Z 26010KT 3000 BR NSC 24/22 Q1014 NOSIG
06:00
V
23 °C 10 km+ - 250° 250° 8 kt METAR DGAA 100600Z 25008KT CAVOK 23/22 Q1012 NOSIG
05:00
V
23 °C 10 km+ - 260° 260° 8 kt METAR DGAA 100500Z 26008KT 9999 FEW010 23/22 Q1013 NOSIG
04:00
V
24 °C 10 km+ - 260° 260° 5 kt METAR DGAA 100400Z 26005KT 9999 SCT010 24/22 Q1013 NOSIG
03:00
V
24 °C 10 km+ - 240° 240° 7 kt METAR DGAA 100300Z 24007KT 9999 SCT010 24/22 Q1013 NOSIG
02:00
V
24 °C 10 km+ - 240° 240° 10 kt METAR DGAA 100200Z 24010KT 9999 SCT010 24/22 Q1013 NOSIG
01:00
V
24 °C 10 km+ - 230° 230° 9 kt METAR DGAA 100100Z 23009KT 9999 SCT010 24/22 Q1014 NOSIG
00:00
V
24 °C 10 km+ - 230° 230° 8 kt METAR DGAA 100000Z 23008KT 9999 SCT010 24/22 Q1014 NOSIG

9. August 2022

Uhrzeit Code Wetter Temp. Sichtweite Wolkendecke Wind METAR/SPECI
23:00
V
24 °C 10 km+ - 230° 230° 9 kt METAR DGAA 092300Z 23009KT 9999 SCT008 24/22 Q1015 NOSIG
22:00
V
24 °C 10 km+ - 220° 220° 12 kt METAR DGAA 092200Z 22012KT 9999 SCT008 24/22 Q1014 NOSIG
21:00
V
25 °C 10 km+ - 220° 220° 12 kt METAR DGAA 092100Z 22012KT 9999 SCT012 25/22 Q1014 NOSIG
20:00
V
25 °C 10 km+ - 220° 220° 11 kt METAR DGAA 092000Z 22011KT 9999 FEW012 25/22 Q1013 NOSIG
19:00
V
25 °C 10 km+ - 210° 210° 14 kt METAR DGAA 091900Z 21014KT 9999 FEW012 25/22 Q1013 NOSIG
18:00
V
25 °C 10 km+ - 210° 210° 13 kt METAR DGAA 091800Z 21013KT 9999 SCT014 25/22 Q1012 NOSIG
16:00
V
26 °C 10 km+ - 200° 200° 16 kt METAR DGAA 091600Z 20016KT 9999 SCT017 26/21 Q1011 NOSIG
15:00
V
26 °C 10 km+ - 200° 200° 17 kt METAR DGAA 091500Z 20017KT 9999 SCT017 26/21 Q1012 NOSIG
Ältere Daten

Wir und Dritte verfolgen dein Internetverhalten auf unserer Website mit Cookies. Wenn du fortfährst, gehen wir davon aus, dass du mit unserer Cookie-Richtlinie einverstanden bist. Mehr erfahren